createdAt,value
2023-04-08T09:16:12.657Z,4.80
2023-04-08T09:18:51.527Z,4.30
2023-04-08T09:21:27.141Z,4.70
2023-04-08T09:23:59.634Z,5.50
2023-04-08T09:26:39.219Z,3.90
2023-04-08T09:29:24.156Z,4.10
2023-04-08T09:43:40.751Z,5.00
2023-04-08T09:46:14.838Z,5.30
2023-04-08T09:49:27.454Z,4.70
2023-04-08T09:52:19.333Z,4.60
2023-04-08T09:54:59.669Z,4.00
2023-04-08T09:57:47.047Z,4.80
2023-04-08T10:00:17.735Z,3.80
2023-04-08T10:03:15.457Z,3.40
2023-04-08T10:05:46.493Z,4.10
2023-04-08T10:08:17.584Z,4.20
2023-04-08T10:10:47.956Z,5.50
2023-04-08T10:13:23.609Z,5.00
2023-04-08T10:16:24.845Z,4.70
2023-04-08T10:18:58.917Z,4.30
2023-04-08T10:21:40.342Z,3.50
2023-04-08T10:24:12.039Z,3.80
2023-04-08T10:26:45.456Z,4.60
2023-04-08T10:29:39.462Z,6.20
2023-04-08T10:32:08.586Z,6.50
2023-04-08T10:34:37.567Z,5.30
2023-04-08T10:37:07.854Z,6.70
2023-04-08T10:39:40.159Z,4.40
2023-04-08T10:42:12.495Z,4.30
2023-04-08T10:44:44.952Z,3.90
2023-04-08T10:47:18.764Z,4.00
2023-04-08T10:49:48.777Z,4.00
2023-04-08T10:52:17.215Z,4.90
2023-04-08T10:54:48.824Z,3.60
2023-04-08T10:57:24.819Z,4.00
2023-04-08T10:59:54.168Z,6.60
2023-04-08T11:02:23.669Z,4.80
2023-04-08T11:04:54.866Z,4.20
2023-04-08T11:07:27.579Z,6.00
2023-04-08T11:09:57.273Z,4.80
2023-04-08T11:12:32.750Z,3.80
2023-04-08T11:15:08.099Z,3.20
2023-04-08T11:17:38.126Z,4.40
2023-04-08T11:20:13.741Z,4.40
2023-04-08T11:22:42.879Z,5.00
2023-04-08T11:25:12.098Z,5.20
2023-04-08T11:27:44.432Z,5.00
2023-04-08T11:30:14.008Z,4.20
2023-04-08T11:32:45.406Z,3.70
2023-04-08T11:35:13.863Z,4.00
2023-04-08T11:37:43.471Z,3.60
2023-04-08T11:40:20.929Z,3.80
2023-04-08T11:42:53.601Z,4.10
2023-04-08T11:45:23.546Z,3.80
2023-04-08T11:47:53.241Z,4.50
2023-04-08T11:50:31.211Z,4.50
2023-04-08T11:53:01.130Z,4.10
2023-04-08T11:55:30.514Z,3.50
2023-04-08T11:58:06.416Z,3.70
2023-04-08T12:00:37.695Z,2.80
2023-04-08T12:03:12.939Z,3.20
2023-04-08T12:05:45.869Z,3.60
2023-04-08T12:08:14.458Z,3.70
2023-04-08T12:10:44.978Z,3.50
2023-04-08T12:13:17.972Z,3.80
2023-04-08T12:15:48.386Z,3.70
2023-04-08T12:18:17.262Z,3.70
2023-04-08T12:20:46.498Z,4.00
2023-04-08T12:23:20.057Z,3.40
2023-04-08T12:25:49.690Z,3.90
2023-04-08T12:28:21.456Z,3.80
2023-04-08T12:33:22.419Z,3.30
2023-04-08T12:35:52.666Z,3.10
2023-04-08T12:38:21.776Z,3.40
2023-04-08T12:40:50.339Z,3.90
2023-04-08T12:43:24.054Z,3.60
2023-04-08T12:45:55.087Z,3.10
2023-04-08T12:48:26.822Z,3.80
2023-04-08T12:50:58.989Z,4.50
2023-04-08T12:53:28.590Z,3.40
2023-04-08T12:55:59.545Z,4.50
2023-04-08T12:58:37.161Z,3.80
2023-04-08T13:03:46.957Z,4.30
2023-04-08T13:06:18.226Z,6.20
2023-04-08T13:08:55.627Z,3.60
2023-04-08T13:11:29.491Z,3.40
2023-04-08T13:13:59.809Z,4.00
2023-04-08T13:16:31.903Z,3.90
2023-04-08T13:19:05.747Z,3.20
2023-04-08T13:21:36.094Z,4.40
2023-04-08T13:24:05.431Z,3.00
2023-04-08T13:26:34.503Z,2.80
2023-04-08T13:29:05.051Z,3.30
2023-04-08T13:31:34.707Z,4.00
2023-04-08T13:34:07.320Z,3.70
2023-04-08T13:36:43.220Z,3.70
2023-04-08T13:39:13.917Z,3.90
2023-04-08T13:41:44.072Z,3.50
2023-04-08T13:44:12.747Z,4.70
2023-04-08T13:46:43.956Z,5.60
2023-04-08T13:49:14.076Z,3.10
2023-04-08T13:51:42.847Z,3.80
2023-04-08T13:54:17.980Z,2.30
2023-04-08T13:56:47.075Z,3.40
2023-04-08T13:59:16.925Z,3.90
2023-04-08T14:01:45.447Z,3.10
2023-04-08T14:04:14.796Z,3.20
2023-04-08T14:06:43.988Z,3.20
2023-04-08T14:09:13.387Z,3.20
2023-04-08T14:11:42.760Z,3.00
2023-04-08T14:14:11.484Z,2.60
2023-04-08T14:16:39.945Z,2.60
2023-04-08T14:19:08.551Z,1.90
2023-04-08T14:21:38.363Z,4.10
2023-04-08T14:24:07.430Z,6.20
2023-04-08T14:26:39.313Z,4.60
2023-04-08T14:29:09.902Z,8.90
2023-04-08T14:31:41.155Z,5.10
2023-04-08T14:34:09.882Z,4.40
2023-04-08T14:36:40.403Z,3.30
2023-04-08T14:39:15.051Z,7.50
2023-04-08T14:42:03.269Z,4.70
2023-04-08T14:44:36.505Z,6.60
2023-04-08T14:47:07.536Z,3.80
2023-04-08T14:49:36.087Z,4.70
2023-04-08T14:52:08.055Z,4.80
2023-04-08T14:54:37.764Z,6.10
2023-04-08T14:59:44.459Z,4.80
2023-04-08T15:02:13.639Z,3.90
2023-04-08T15:04:44.952Z,4.90
2023-04-08T15:07:14.952Z,4.60
2023-04-08T15:09:46.405Z,5.90
2023-04-08T15:12:16.143Z,5.70
2023-04-08T15:14:46.858Z,4.60
2023-04-08T15:17:17.386Z,6.10
2023-04-08T15:19:51.153Z,5.70
2023-04-08T15:22:21.865Z,5.50
2023-04-08T15:24:53.471Z,6.20
2023-04-08T15:27:27.480Z,6.40
2023-04-08T15:29:59.679Z,6.30
2023-04-08T15:32:29.685Z,6.30
2023-04-08T15:34:59.220Z,5.90
2023-04-08T15:37:32.961Z,5.60
2023-04-08T15:40:02.898Z,6.00
2023-04-08T15:42:31.746Z,6.20
2023-04-08T15:45:02.053Z,6.00
2023-04-08T15:47:38.188Z,5.50
2023-04-08T15:50:08.863Z,5.70
2023-04-08T15:52:38.055Z,6.10
2023-04-08T15:55:08.045Z,6.10
2023-04-08T15:57:37.774Z,5.80
2023-04-08T16:00:12.240Z,6.20
2023-04-08T16:02:42.655Z,8.10
2023-04-08T16:05:13.508Z,8.00
2023-04-08T16:07:44.080Z,7.60
2023-04-08T16:10:14.935Z,7.30
2023-04-08T16:12:43.385Z,8.00
2023-04-08T16:15:14.484Z,7.50
2023-04-08T16:17:43.457Z,7.00
2023-04-08T16:20:12.552Z,9.20
2023-04-08T16:22:50.640Z,6.80
2023-04-08T16:27:48.846Z,7.90
2023-04-08T16:30:17.779Z,7.20
2023-04-08T16:32:47.822Z,8.00
2023-04-08T16:35:19.085Z,7.90
2023-04-08T16:37:51.357Z,7.60
2023-04-08T16:40:27.417Z,7.60
2023-04-08T16:42:56.928Z,7.70
2023-04-08T16:45:26.070Z,6.90
2023-04-08T16:47:56.737Z,6.30
2023-04-08T16:50:34.286Z,6.20
2023-04-08T16:53:04.721Z,6.60
2023-04-08T16:55:36.332Z,6.70
2023-04-08T16:58:06.365Z,6.80
2023-04-08T17:00:37.037Z,8.20
2023-04-08T17:03:12.663Z,7.60
2023-04-08T17:05:45.899Z,7.50
2023-04-08T17:10:55.050Z,9.00
2023-04-08T17:13:26.057Z,12.70
2023-04-08T17:15:59.217Z,12.80
2023-04-08T17:18:30.066Z,15.20
2023-04-08T17:21:03.850Z,14.50
2023-04-08T17:23:39.363Z,25.10
2023-04-08T17:26:13.009Z,20.80
2023-04-08T17:28:43.621Z,16.10
2023-04-08T17:31:15.088Z,12.80
2023-04-08T17:33:52.259Z,10.90
2023-04-08T17:36:21.995Z,14.60
2023-04-08T17:38:51.270Z,16.10
2023-04-08T17:41:38.132Z,16.50
2023-04-08T17:44:11.884Z,10.60
2023-04-08T17:46:46.558Z,9.10
2023-04-08T17:49:15.359Z,8.50
2023-04-08T17:51:47.243Z,12.20
2023-04-08T17:54:18.212Z,13.00
2023-04-08T17:56:49.057Z,12.50
2023-04-08T17:59:18.346Z,13.40
2023-04-08T18:01:47.963Z,12.40
2023-04-08T18:06:53.204Z,11.40
2023-04-08T18:09:36.335Z,11.40
2023-04-08T18:12:09.928Z,18.80
2023-04-08T18:14:39.370Z,22.30
2023-04-08T18:17:10.489Z,17.90
2023-04-08T18:19:44.081Z,16.90
2023-04-08T18:22:12.795Z,9.30
2023-04-08T18:24:42.957Z,8.50
2023-04-08T18:27:11.682Z,8.40
2023-04-08T18:29:41.803Z,7.40
2023-04-08T18:32:11.014Z,8.00
2023-04-08T18:34:43.168Z,7.00
2023-04-08T18:37:13.390Z,6.80
2023-04-08T18:39:41.954Z,6.70
2023-04-08T18:42:12.084Z,5.00
2023-04-08T18:44:41.738Z,4.70
2023-04-08T18:47:11.386Z,5.00
2023-04-08T18:49:41.096Z,4.70
2023-04-08T18:52:09.793Z,4.60
2023-04-08T18:54:49.104Z,4.10
2023-04-08T18:57:22.961Z,3.20
2023-04-08T18:59:51.771Z,3.60
2023-04-08T19:02:20.890Z,3.90
2023-04-08T19:04:50.531Z,4.40
2023-04-08T19:07:22.469Z,4.20
2023-04-08T19:10:01.256Z,4.30
2023-04-08T19:12:31.974Z,5.40
2023-04-08T19:15:00.736Z,4.50
2023-04-08T19:17:32.357Z,5.20
2023-04-08T19:20:08.736Z,5.30
2023-04-08T19:22:39.783Z,4.60
2023-04-08T19:25:08.981Z,6.90
2023-04-08T19:27:40.653Z,6.50
2023-04-08T19:30:10.481Z,5.50
2023-04-08T19:32:44.491Z,5.20
2023-04-08T19:35:15.695Z,6.30
2023-04-08T19:37:49.506Z,6.30
2023-04-08T19:40:19.659Z,6.10
2023-04-08T19:42:50.173Z,5.30
2023-04-08T19:45:19.808Z,7.10
2023-04-08T19:47:50.102Z,6.20
2023-04-08T19:50:22.504Z,6.30
2023-04-08T19:52:51.369Z,6.10
2023-04-08T19:55:25.754Z,5.60
2023-04-08T19:57:56.215Z,6.50
2023-04-08T20:00:29.737Z,5.90
2023-04-08T20:03:01.988Z,7.40
2023-04-08T20:05:31.480Z,8.10
2023-04-08T20:08:03.160Z,6.60
2023-04-08T20:10:36.500Z,6.50
2023-04-08T20:13:04.956Z,6.00
2023-04-08T20:15:33.482Z,5.80
2023-04-08T20:18:05.156Z,6.30
2023-04-08T20:20:35.681Z,5.60
2023-04-08T20:23:05.805Z,5.70
2023-04-08T20:25:35.931Z,5.70
2023-04-08T20:28:05.016Z,5.90
2023-04-08T20:30:37.181Z,6.70
2023-04-08T20:33:07.004Z,6.50
2023-04-08T20:35:36.150Z,5.90
2023-04-08T20:38:06.609Z,6.40
2023-04-08T20:40:54.711Z,6.10
2023-04-08T20:43:27.348Z,7.10
2023-04-08T20:46:01.350Z,6.00
2023-04-08T20:48:36.701Z,5.20
2023-04-08T20:51:06.918Z,6.00
2023-04-08T20:53:41.597Z,7.60
2023-04-08T20:56:11.520Z,6.00
2023-04-08T20:58:43.921Z,6.10
2023-04-08T21:01:14.429Z,6.80
2023-04-08T21:03:43.729Z,6.00
2023-04-08T21:06:20.623Z,6.10
2023-04-08T21:08:50.169Z,6.30
2023-04-08T21:11:19.530Z,6.80
2023-04-08T21:13:49.620Z,6.00
2023-04-08T21:16:19.857Z,6.00
2023-04-08T21:18:48.456Z,7.10
2023-04-08T21:21:18.556Z,5.80
2023-04-08T21:23:47.310Z,6.10
2023-04-08T21:26:15.724Z,6.30
2023-04-08T21:28:47.861Z,6.60
2023-04-08T21:31:19.627Z,6.10
2023-04-08T21:33:51.308Z,6.40
2023-04-08T21:36:22.508Z,6.20
2023-04-08T21:38:52.407Z,5.50
2023-04-08T21:41:25.228Z,6.90
2023-04-08T21:43:53.932Z,6.70
2023-04-08T21:46:24.612Z,6.90
2023-04-08T21:48:54.269Z,6.30
2023-04-08T21:51:23.370Z,6.30
2023-04-08T21:53:52.703Z,6.90
2023-04-08T21:56:22.369Z,6.30
2023-04-08T21:58:51.856Z,5.70
2023-04-08T22:01:22.819Z,6.10
2023-04-08T22:03:54.246Z,6.40
2023-04-08T22:06:31.523Z,6.30
2023-04-08T22:09:02.049Z,6.70
2023-04-08T22:11:34.848Z,6.30
2023-04-08T22:14:03.571Z,6.20
2023-04-08T22:16:34.141Z,6.00
2023-04-08T22:19:02.850Z,5.80
2023-04-08T22:21:34.486Z,6.90
2023-04-08T22:24:06.614Z,5.90
2023-04-08T22:26:34.975Z,6.60
2023-04-08T22:29:07.908Z,6.90
2023-04-08T22:31:37.806Z,7.70
2023-04-08T22:34:07.571Z,7.30
2023-04-08T22:36:37.327Z,6.90
2023-04-08T22:39:06.662Z,7.50
2023-04-08T22:41:35.804Z,7.50
2023-04-08T22:44:04.856Z,8.40
2023-04-08T22:46:36.964Z,7.90
2023-04-08T22:49:06.498Z,7.70
2023-04-08T22:51:37.257Z,7.50
2023-04-08T22:54:06.875Z,7.70
2023-04-08T22:56:36.280Z,8.80
2023-04-08T22:59:05.580Z,8.80
2023-04-08T23:01:34.382Z,8.10
2023-04-08T23:04:05.719Z,8.10
2023-04-08T23:06:38.570Z,7.70
2023-04-08T23:09:09.978Z,8.50
2023-04-08T23:11:38.675Z,8.00
2023-04-08T23:14:14.448Z,8.30
2023-04-08T23:16:46.898Z,8.60
2023-04-08T23:19:17.399Z,8.30
2023-04-08T23:21:46.584Z,7.40
2023-04-08T23:24:16.263Z,7.80
2023-04-08T23:26:44.988Z,7.50
2023-04-08T23:29:15.935Z,8.40
2023-04-08T23:31:45.206Z,7.80
2023-04-08T23:34:14.073Z,7.50
2023-04-08T23:36:46.932Z,8.60
2023-04-08T23:39:16.877Z,7.80
2023-04-08T23:41:45.354Z,7.70
2023-04-08T23:44:14.371Z,9.10
2023-04-08T23:46:46.238Z,8.90
2023-04-08T23:49:16.125Z,7.10
2023-04-08T23:51:47.871Z,7.50
2023-04-08T23:54:20.531Z,8.10
2023-04-08T23:56:56.276Z,15.80
2023-04-08T23:59:29.103Z,11.30
